sensor_id;sensor_type;location;lat;lon;timestamp;temperature;humidity
736;DHT22;352;48.626;9.238;2023-06-10T00:01:52;19.70;91.10
736;DHT22;352;48.626;9.238;2023-06-10T00:04:20;19.60;91.20
736;DHT22;352;48.626;9.238;2023-06-10T00:06:47;19.60;91.30
736;DHT22;352;48.626;9.238;2023-06-10T00:09:16;19.60;91.40
736;DHT22;352;48.626;9.238;2023-06-10T00:11:44;19.50;91.50
736;DHT22;352;48.626;9.238;2023-06-10T00:14:11;19.50;91.50
736;DHT22;352;48.626;9.238;2023-06-10T00:16:37;19.50;91.50
736;DHT22;352;48.626;9.238;2023-06-10T00:19:05;19.40;91.50
736;DHT22;352;48.626;9.238;2023-06-10T00:21:34;19.40;91.20
736;DHT22;352;48.626;9.238;2023-06-10T00:24:03;19.40;91.10
736;DHT22;352;48.626;9.238;2023-06-10T00:26:32;19.30;91.10
736;DHT22;352;48.626;9.238;2023-06-10T00:28:59;19.30;91.00
736;DHT22;352;48.626;9.238;2023-06-10T00:31:25;19.20;91.40
736;DHT22;352;48.626;9.238;2023-06-10T00:33:52;19.30;91.60
736;DHT22;352;48.626;9.238;2023-06-10T00:36:19;19.20;92.10
736;DHT22;352;48.626;9.238;2023-06-10T00:38:46;19.20;92.50
736;DHT22;352;48.626;9.238;2023-06-10T00:41:13;19.10;92.60
736;DHT22;352;48.626;9.238;2023-06-10T00:43:41;19.10;92.80
736;DHT22;352;48.626;9.238;2023-06-10T00:46:08;19.10;92.80
736;DHT22;352;48.626;9.238;2023-06-10T00:48:35;19.10;92.90
736;DHT22;352;48.626;9.238;2023-06-10T00:51:02;19.00;93.10
736;DHT22;352;48.626;9.238;2023-06-10T00:53:29;19.00;93.00
736;DHT22;352;48.626;9.238;2023-06-10T00:55:55;19.00;93.00
736;DHT22;352;48.626;9.238;2023-06-10T00:58:23;18.90;93.00
736;DHT22;352;48.626;9.238;2023-06-10T01:00:52;18.90;93.20
736;DHT22;352;48.626;9.238;2023-06-10T01:03:19;18.80;93.30
736;DHT22;352;48.626;9.238;2023-06-10T01:05:50;18.80;93.40
736;DHT22;352;48.626;9.238;2023-06-10T01:08:25;18.80;93.40
736;DHT22;352;48.626;9.238;2023-06-10T01:10:57;18.80;93.70
736;DHT22;352;48.626;9.238;2023-06-10T01:13:25;18.80;93.80
736;DHT22;352;48.626;9.238;2023-06-10T01:15:55;18.80;93.80
736;DHT22;352;48.626;9.238;2023-06-10T01:18:22;18.80;93.70
736;DHT22;352;48.626;9.238;2023-06-10T01:20:49;18.80;93.60
736;DHT22;352;48.626;9.238;2023-06-10T01:23:19;18.70;93.80
736;DHT22;352;48.626;9.238;2023-06-10T01:25:53;18.70;94.00
736;DHT22;352;48.626;9.238;2023-06-10T01:28:25;18.70;94.10
736;DHT22;352;48.626;9.238;2023-06-10T01:30:58;18.60;94.40
736;DHT22;352;48.626;9.238;2023-06-10T01:33:29;18.60;94.20
736;DHT22;352;48.626;9.238;2023-06-10T01:35:59;18.70;94.10
736;DHT22;352;48.626;9.238;2023-06-10T01:38:31;18.60;94.50
736;DHT22;352;48.626;9.238;2023-06-10T01:40:59;18.60;94.60
736;DHT22;352;48.626;9.238;2023-06-10T01:43:26;18.50;94.70
736;DHT22;352;48.626;9.238;2023-06-10T01:45:53;18.50;94.80
736;DHT22;352;48.626;9.238;2023-06-10T01:48:19;18.40;94.60
736;DHT22;352;48.626;9.238;2023-06-10T01:50:46;18.40;94.90
736;DHT22;352;48.626;9.238;2023-06-10T01:53:13;18.40;95.00
736;DHT22;352;48.626;9.238;2023-06-10T01:55:41;18.40;95.10
736;DHT22;352;48.626;9.238;2023-06-10T01:58:07;18.30;95.20
736;DHT22;352;48.626;9.238;2023-06-10T02:00:34;18.20;95.20
736;DHT22;352;48.626;9.238;2023-06-10T02:03:01;18.20;95.50
736;DHT22;352;48.626;9.238;2023-06-10T02:05:27;18.20;95.70
736;DHT22;352;48.626;9.238;2023-06-10T02:07:54;18.10;95.60
736;DHT22;352;48.626;9.238;2023-06-10T02:10:21;18.10;95.90
736;DHT22;352;48.626;9.238;2023-06-10T02:12:49;18.00;96.00
736;DHT22;352;48.626;9.238;2023-06-10T02:15:16;18.10;96.30
736;DHT22;352;48.626;9.238;2023-06-10T02:17:43;18.10;96.20
736;DHT22;352;48.626;9.238;2023-06-10T02:20:11;18.00;96.20
736;DHT22;352;48.626;9.238;2023-06-10T02:22:39;17.90;96.20
736;DHT22;352;48.626;9.238;2023-06-10T02:25:06;18.00;96.50
736;DHT22;352;48.626;9.238;2023-06-10T02:27:34;18.00;96.30
736;DHT22;352;48.626;9.238;2023-06-10T02:30:02;18.00;96.40
736;DHT22;352;48.626;9.238;2023-06-10T02:32:28;18.00;96.20
736;DHT22;352;48.626;9.238;2023-06-10T02:34:55;17.90;96.60
736;DHT22;352;48.626;9.238;2023-06-10T02:37:23;17.90;96.60
736;DHT22;352;48.626;9.238;2023-06-10T02:39:50;17.90;96.70
736;DHT22;352;48.626;9.238;2023-06-10T02:42:16;17.80;96.70
736;DHT22;352;48.626;9.238;2023-06-10T02:44:43;17.80;96.90
736;DHT22;352;48.626;9.238;2023-06-10T02:47:11;17.80;96.80
736;DHT22;352;48.626;9.238;2023-06-10T02:49:38;17.70;96.80
736;DHT22;352;48.626;9.238;2023-06-10T02:52:06;17.70;96.90
736;DHT22;352;48.626;9.238;2023-06-10T02:54:33;17.60;97.20
736;DHT22;352;48.626;9.238;2023-06-10T02:57:01;17.60;97.30
736;DHT22;352;48.626;9.238;2023-06-10T02:59:28;17.50;97.60
736;DHT22;352;48.626;9.238;2023-06-10T03:01:54;17.50;97.50
736;DHT22;352;48.626;9.238;2023-06-10T03:04:22;17.50;97.80
736;DHT22;352;48.626;9.238;2023-06-10T03:06:51;17.40;98.00
736;DHT22;352;48.626;9.238;2023-06-10T03:09:17;17.40;98.20
736;DHT22;352;48.626;9.238;2023-06-10T03:11:44;17.30;98.50
736;DHT22;352;48.626;9.238;2023-06-10T03:14:11;17.30;98.50
736;DHT22;352;48.626;9.238;2023-06-10T03:16:38;17.30;98.60
736;DHT22;352;48.626;9.238;2023-06-10T03:19:06;17.30;98.70
736;DHT22;352;48.626;9.238;2023-06-10T03:21:34;17.20;98.90
736;DHT22;352;48.626;9.238;2023-06-10T03:24:02;17.20;98.90
736;DHT22;352;48.626;9.238;2023-06-10T03:26:29;17.20;99.00
736;DHT22;352;48.626;9.238;2023-06-10T03:28:56;17.20;99.10
736;DHT22;352;48.626;9.238;2023-06-10T03:31:23;17.20;99.30
736;DHT22;352;48.626;9.238;2023-06-10T03:33:50;17.20;99.30
736;DHT22;352;48.626;9.238;2023-06-10T03:36:16;17.20;99.40
736;DHT22;352;48.626;9.238;2023-06-10T03:38:44;17.20;99.50
736;DHT22;352;48.626;9.238;2023-06-10T03:41:11;17.20;99.40
736;DHT22;352;48.626;9.238;2023-06-10T03:43:38;17.20;99.60
736;DHT22;352;48.626;9.238;2023-06-10T03:46:06;17.20;99.70
736;DHT22;352;48.626;9.238;2023-06-10T03:48:32;17.10;99.80
736;DHT22;352;48.626;9.238;2023-06-10T03:50:59;17.10;99.70
736;DHT22;352;48.626;9.238;2023-06-10T03:53:26;17.10;99.70
736;DHT22;352;48.626;9.238;2023-06-10T03:55:54;17.10;99.90
736;DHT22;352;48.626;9.238;2023-06-10T03:58:22;17.10;99.90
736;DHT22;352;48.626;9.238;2023-06-10T04:00:49;17.10;99.90
736;DHT22;352;48.626;9.238;2023-06-10T04:03:16;17.10;99.90
736;DHT22;352;48.626;9.238;2023-06-10T04:05:43;17.10;99.90
736;DHT22;352;48.626;9.238;2023-06-10T04:08:09;17.00;99.70
736;DHT22;352;48.626;9.238;2023-06-10T04:10:36;17.00;99.90
736;DHT22;352;48.626;9.238;2023-06-10T04:13:04;17.10;99.90
736;DHT22;352;48.626;9.238;2023-06-10T04:15:31;17.00;99.90
736;DHT22;352;48.626;9.238;2023-06-10T04:17:59;17.00;99.90
736;DHT22;352;48.626;9.238;2023-06-10T04:20:26;17.10;99.90
736;DHT22;352;48.626;9.238;2023-06-10T04:22:53;17.10;99.90
736;DHT22;352;48.626;9.238;2023-06-10T04:25:20;17.10;99.90
736;DHT22;352;48.626;9.238;2023-06-10T04:27:46;17.10;99.90
736;DHT22;352;48.626;9.238;2023-06-10T04:30:16;17.10;99.90
736;DHT22;352;48.626;9.238;2023-06-10T04:32:43;17.20;99.90
736;DHT22;352;48.626;9.238;2023-06-10T04:35:11;17.20;99.90
736;DHT22;352;48.626;9.238;2023-06-10T04:37:39;17.20;99.90
736;DHT22;352;48.626;9.238;2023-06-10T04:40:07;17.20;99.90
736;DHT22;352;48.626;9.238;2023-06-10T04:42:34;17.30;99.90
736;DHT22;352;48.626;9.238;2023-06-10T04:45:00;17.30;99.90
736;DHT22;352;48.626;9.238;2023-06-10T04:47:29;17.40;99.90
736;DHT22;352;48.626;9.238;2023-06-10T04:49:58;17.50;99.90
736;DHT22;352;48.626;9.238;2023-06-10T04:52:25;17.50;99.90
736;DHT22;352;48.626;9.238;2023-06-10T04:54:52;17.60;99.90
736;DHT22;352;48.626;9.238;2023-06-10T04:57:19;17.70;99.90
736;DHT22;352;48.626;9.238;2023-06-10T04:59:45;17.70;99.90
736;DHT22;352;48.626;9.238;2023-06-10T05:02:12;17.80;99.90
736;DHT22;352;48.626;9.238;2023-06-10T05:04:40;17.80;99.90
736;DHT22;352;48.626;9.238;2023-06-10T05:07:07;17.90;99.90
736;DHT22;352;48.626;9.238;2023-06-10T05:09:34;18.00;99.90
736;DHT22;352;48.626;9.238;2023-06-10T05:12:01;18.10;99.90
736;DHT22;352;48.626;9.238;2023-06-10T05:14:28;18.20;99.90
736;DHT22;352;48.626;9.238;2023-06-10T05:16:54;18.40;99.90
736;DHT22;352;48.626;9.238;2023-06-10T05:19:21;18.50;99.90
736;DHT22;352;48.626;9.238;2023-06-10T05:21:49;18.70;99.90
736;DHT22;352;48.626;9.238;2023-06-10T05:24:16;18.90;99.40
736;DHT22;352;48.626;9.238;2023-06-10T05:26:42;19.10;99.40
736;DHT22;352;48.626;9.238;2023-06-10T05:29:09;19.40;98.60
736;DHT22;352;48.626;9.238;2023-06-10T05:31:36;19.80;98.20
736;DHT22;352;48.626;9.238;2023-06-10T05:34:03;20.30;96.90
736;DHT22;352;48.626;9.238;2023-06-10T05:36:30;20.70;95.90
736;DHT22;352;48.626;9.238;2023-06-10T05:38:59;21.20;95.30
736;DHT22;352;48.626;9.238;2023-06-10T05:41:26;21.60;94.70
736;DHT22;352;48.626;9.238;2023-06-10T05:43:52;22.00;94.30
736;DHT22;352;48.626;9.238;2023-06-10T05:46:19;22.40;93.10
736;DHT22;352;48.626;9.238;2023-06-10T05:48:46;22.80;92.80
736;DHT22;352;48.626;9.238;2023-06-10T05:51:13;23.20;92.50
736;DHT22;352;48.626;9.238;2023-06-10T05:53:40;23.50;92.00
736;DHT22;352;48.626;9.238;2023-06-10T05:56:08;23.90;91.30
736;DHT22;352;48.626;9.238;2023-06-10T05:58:34;24.30;90.00
736;DHT22;352;48.626;9.238;2023-06-10T06:01:01;24.60;88.30
736;DHT22;352;48.626;9.238;2023-06-10T06:03:28;24.80;89.10
736;DHT22;352;48.626;9.238;2023-06-10T06:05:55;25.20;86.90
736;DHT22;352;48.626;9.238;2023-06-10T06:08:22;25.40;85.20
736;DHT22;352;48.626;9.238;2023-06-10T06:10:48;25.60;84.40
736;DHT22;352;48.626;9.238;2023-06-10T06:13:16;25.80;84.00
736;DHT22;352;48.626;9.238;2023-06-10T06:15:43;26.10;85.60
736;DHT22;352;48.626;9.238;2023-06-10T06:18:10;26.40;80.80
736;DHT22;352;48.626;9.238;2023-06-10T06:20:36;26.60;81.00
736;DHT22;352;48.626;9.238;2023-06-10T06:23:03;26.90;79.50
736;DHT22;352;48.626;9.238;2023-06-10T06:25:30;26.80;80.20
736;DHT22;352;48.626;9.238;2023-06-10T06:27:56;27.00;80.40
736;DHT22;352;48.626;9.238;2023-06-10T06:30:25;27.20;79.20
736;DHT22;352;48.626;9.238;2023-06-10T06:32:51;27.50;77.80
736;DHT22;352;48.626;9.238;2023-06-10T06:35:18;27.80;76.80
736;DHT22;352;48.626;9.238;2023-06-10T06:37:45;27.90;79.40
736;DHT22;352;48.626;9.238;2023-06-10T06:40:12;28.20;77.50
736;DHT22;352;48.626;9.238;2023-06-10T06:42:39;28.50;76.60
736;DHT22;352;48.626;9.238;2023-06-10T06:45:06;28.80;76.60
736;DHT22;352;48.626;9.238;2023-06-10T06:47:35;29.00;74.80
736;DHT22;352;48.626;9.238;2023-06-10T06:50:03;29.10;71.90
736;DHT22;352;48.626;9.238;2023-06-10T06:52:30;29.40;70.50
736;DHT22;352;48.626;9.238;2023-06-10T06:54:57;29.70;70.40
736;DHT22;352;48.626;9.238;2023-06-10T06:57:23;30.00;69.40
736;DHT22;352;48.626;9.238;2023-06-10T06:59:50;29.90;67.40
736;DHT22;352;48.626;9.238;2023-06-10T07:02:17;29.90;68.70
736;DHT22;352;48.626;9.238;2023-06-10T07:04:45;29.90;67.90
736;DHT22;352;48.626;9.238;2023-06-10T07:07:14;30.00;69.10
736;DHT22;352;48.626;9.238;2023-06-10T07:09:41;30.30;68.90
736;DHT22;352;48.626;9.238;2023-06-10T07:12:09;30.50;66.00
736;DHT22;352;48.626;9.238;2023-06-10T07:14:49;30.40;67.10
736;DHT22;352;48.626;9.238;2023-06-10T07:17:34;30.70;66.80
736;DHT22;352;48.626;9.238;2023-06-10T07:20:03;31.20;65.10
736;DHT22;352;48.626;9.238;2023-06-10T07:22:30;31.20;64.20
736;DHT22;352;48.626;9.238;2023-06-10T07:24:57;31.40;63.70
736;DHT22;352;48.626;9.238;2023-06-10T07:27:24;31.10;63.20
736;DHT22;352;48.626;9.238;2023-06-10T07:29:51;30.80;62.80
736;DHT22;352;48.626;9.238;2023-06-10T07:32:19;30.50;63.10
736;DHT22;352;48.626;9.238;2023-06-10T07:34:47;30.60;64.00
736;DHT22;352;48.626;9.238;2023-06-10T07:37:19;30.70;63.40
736;DHT22;352;48.626;9.238;2023-06-10T07:40:01;30.70;63.00
736;DHT22;352;48.626;9.238;2023-06-10T07:45:49;30.90;63.50
736;DHT22;352;48.626;9.238;2023-06-10T07:48:15;30.90;62.60
736;DHT22;352;48.626;9.238;2023-06-10T07:50:42;30.80;62.40
736;DHT22;352;48.626;9.238;2023-06-10T07:53:10;30.80;62.90
736;DHT22;352;48.626;9.238;2023-06-10T07:55:37;31.00;62.40
736;DHT22;352;48.626;9.238;2023-06-10T07:58:04;31.10;61.00
736;DHT22;352;48.626;9.238;2023-06-10T08:00:30;30.90;61.30
736;DHT22;352;48.626;9.238;2023-06-10T08:02:57;30.60;61.60
736;DHT22;352;48.626;9.238;2023-06-10T08:05:24;30.80;62.40
736;DHT22;352;48.626;9.238;2023-06-10T08:07:51;31.00;63.60
736;DHT22;352;48.626;9.238;2023-06-10T08:10:19;31.20;62.90
736;DHT22;352;48.626;9.238;2023-06-10T08:12:46;31.40;59.80
736;DHT22;352;48.626;9.238;2023-06-10T08:15:13;31.60;61.10
736;DHT22;352;48.626;9.238;2023-06-10T08:17:39;31.70;61.40
736;DHT22;352;48.626;9.238;2023-06-10T08:20:07;32.20;60.00
736;DHT22;352;48.626;9.238;2023-06-10T08:22:34;32.30;59.40
736;DHT22;352;48.626;9.238;2023-06-10T08:25:00;32.40;57.20
736;DHT22;352;48.626;9.238;2023-06-10T08:27:29;32.70;58.10
736;DHT22;352;48.626;9.238;2023-06-10T08:29:55;32.80;58.30
736;DHT22;352;48.626;9.238;2023-06-10T08:32:23;33.10;57.80
736;DHT22;352;48.626;9.238;2023-06-10T08:34:50;32.90;57.70
736;DHT22;352;48.626;9.238;2023-06-10T08:37:16;33.00;56.30
736;DHT22;352;48.626;9.238;2023-06-10T08:39:43;33.10;56.60
736;DHT22;352;48.626;9.238;2023-06-10T08:42:14;33.10;56.70
736;DHT22;352;48.626;9.238;2023-06-10T08:44:46;33.20;56.40
736;DHT22;352;48.626;9.238;2023-06-10T08:47:14;33.30;58.20
736;DHT22;352;48.626;9.238;2023-06-10T08:49:43;33.70;56.50
736;DHT22;352;48.626;9.238;2023-06-10T08:52:14;33.60;55.50
736;DHT22;352;48.626;9.238;2023-06-10T08:54:43;33.60;55.10
736;DHT22;352;48.626;9.238;2023-06-10T08:57:10;33.50;56.30
736;DHT22;352;48.626;9.238;2023-06-10T08:59:37;33.70;55.90
736;DHT22;352;48.626;9.238;2023-06-10T09:02:07;33.70;54.30
736;DHT22;352;48.626;9.238;2023-06-10T09:04:36;33.40;55.20
736;DHT22;352;48.626;9.238;2023-06-10T09:07:04;33.30;54.30
736;DHT22;352;48.626;9.238;2023-06-10T09:09:32;33.30;54.70
736;DHT22;352;48.626;9.238;2023-06-10T09:12:01;32.90;54.40
736;DHT22;352;48.626;9.238;2023-06-10T09:14:27;33.00;54.60
736;DHT22;352;48.626;9.238;2023-06-10T09:16:55;32.80;54.00
736;DHT22;352;48.626;9.238;2023-06-10T09:19:25;32.60;54.40
736;DHT22;352;48.626;9.238;2023-06-10T09:21:53;32.90;54.80
736;DHT22;352;48.626;9.238;2023-06-10T09:24:22;33.10;55.30
736;DHT22;352;48.626;9.238;2023-06-10T09:26:49;33.40;55.30
736;DHT22;352;48.626;9.238;2023-06-10T09:29:17;33.50;56.00
736;DHT22;352;48.626;9.238;2023-06-10T09:31:44;33.70;54.60
736;DHT22;352;48.626;9.238;2023-06-10T09:34:12;33.90;54.40
736;DHT22;352;48.626;9.238;2023-06-10T09:36:41;34.00;53.80
736;DHT22;352;48.626;9.238;2023-06-10T09:39:15;34.10;53.40
736;DHT22;352;48.626;9.238;2023-06-10T09:41:42;34.20;53.50
736;DHT22;352;48.626;9.238;2023-06-10T09:44:12;34.00;53.70
736;DHT22;352;48.626;9.238;2023-06-10T09:46:39;34.10;53.20
736;DHT22;352;48.626;9.238;2023-06-10T09:49:06;34.20;53.90
736;DHT22;352;48.626;9.238;2023-06-10T09:51:33;34.20;52.10
736;DHT22;352;48.626;9.238;2023-06-10T09:54:02;34.30;52.20
736;DHT22;352;48.626;9.238;2023-06-10T09:56:35;34.10;52.50
736;DHT22;352;48.626;9.238;2023-06-10T09:59:02;33.90;53.80
736;DHT22;352;48.626;9.238;2023-06-10T10:01:31;34.10;53.40
736;DHT22;352;48.626;9.238;2023-06-10T10:03:59;34.30;53.20
736;DHT22;352;48.626;9.238;2023-06-10T10:06:27;34.30;52.20
736;DHT22;352;48.626;9.238;2023-06-10T10:08:55;34.70;52.10
736;DHT22;352;48.626;9.238;2023-06-10T10:11:23;34.80;49.90
736;DHT22;352;48.626;9.238;2023-06-10T10:13:52;34.60;50.60
736;DHT22;352;48.626;9.238;2023-06-10T10:16:20;34.70;50.30
736;DHT22;352;48.626;9.238;2023-06-10T10:18:51;34.40;50.20
736;DHT22;352;48.626;9.238;2023-06-10T10:21:22;34.50;50.60
736;DHT22;352;48.626;9.238;2023-06-10T10:23:53;34.70;50.70
736;DHT22;352;48.626;9.238;2023-06-10T10:26:23;35.00;51.00
736;DHT22;352;48.626;9.238;2023-06-10T10:28:58;34.80;50.60
736;DHT22;352;48.626;9.238;2023-06-10T10:31:29;35.10;51.20
736;DHT22;352;48.626;9.238;2023-06-10T10:33:59;35.00;49.70
736;DHT22;352;48.626;9.238;2023-06-10T10:36:27;34.40;50.10
736;DHT22;352;48.626;9.238;2023-06-10T10:38:54;33.70;49.60
736;DHT22;352;48.626;9.238;2023-06-10T10:41:24;32.90;51.20
736;DHT22;352;48.626;9.238;2023-06-10T10:43:53;33.00;52.30
736;DHT22;352;48.626;9.238;2023-06-10T10:46:20;32.90;50.60
736;DHT22;352;48.626;9.238;2023-06-10T10:48:52;33.20;51.70
736;DHT22;352;48.626;9.238;2023-06-10T10:51:19;33.40;51.40
736;DHT22;352;48.626;9.238;2023-06-10T10:54:09;33.70;50.90
736;DHT22;352;48.626;9.238;2023-06-10T10:56:37;33.80;51.20
736;DHT22;352;48.626;9.238;2023-06-10T10:59:04;33.80;50.80
736;DHT22;352;48.626;9.238;2023-06-10T11:01:40;33.60;50.30
736;DHT22;352;48.626;9.238;2023-06-10T11:04:07;33.60;50.80
736;DHT22;352;48.626;9.238;2023-06-10T11:06:34;33.50;50.40
736;DHT22;352;48.626;9.238;2023-06-10T11:09:00;32.80;50.60
736;DHT22;352;48.626;9.238;2023-06-10T11:11:50;32.40;52.00
736;DHT22;352;48.626;9.238;2023-06-10T11:14:27;32.00;51.80
736;DHT22;352;48.626;9.238;2023-06-10T11:16:56;31.80;52.20
736;DHT22;352;48.626;9.238;2023-06-10T11:19:33;31.70;52.70
736;DHT22;352;48.626;9.238;2023-06-10T11:22:01;31.40;52.80
736;DHT22;352;48.626;9.238;2023-06-10T11:24:28;31.30;53.40
736;DHT22;352;48.626;9.238;2023-06-10T11:27:14;31.20;53.40
736;DHT22;352;48.626;9.238;2023-06-10T11:29:55;31.30;53.20
736;DHT22;352;48.626;9.238;2023-06-10T11:32:22;31.20;53.30
736;DHT22;352;48.626;9.238;2023-06-10T11:34:52;31.00;53.50
736;DHT22;352;48.626;9.238;2023-06-10T11:37:20;30.70;54.00
736;DHT22;352;48.626;9.238;2023-06-10T11:39:47;30.80;54.40
736;DHT22;352;48.626;9.238;2023-06-10T11:42:16;30.80;54.30
736;DHT22;352;48.626;9.238;2023-06-10T11:44:48;30.80;53.90
736;DHT22;352;48.626;9.238;2023-06-10T11:47:15;30.70;54.40
736;DHT22;352;48.626;9.238;2023-06-10T11:49:41;30.70;55.60
736;DHT22;352;48.626;9.238;2023-06-10T11:52:27;30.80;54.90
736;DHT22;352;48.626;9.238;2023-06-10T11:54:54;30.90;54.00
736;DHT22;352;48.626;9.238;2023-06-10T11:57:23;30.70;53.90
736;DHT22;352;48.626;9.238;2023-06-10T11:59:49;30.40;54.50
736;DHT22;352;48.626;9.238;2023-06-10T12:02:17;30.50;55.40
736;DHT22;352;48.626;9.238;2023-06-10T12:04:44;30.70;55.10
736;DHT22;352;48.626;9.238;2023-06-10T12:07:17;30.80;53.20
736;DHT22;352;48.626;9.238;2023-06-10T12:09:44;30.80;54.00
736;DHT22;352;48.626;9.238;2023-06-10T12:12:10;30.70;54.60
736;DHT22;352;48.626;9.238;2023-06-10T12:14:55;30.60;54.40
736;DHT22;352;48.626;9.238;2023-06-10T12:17:24;30.50;55.00
736;DHT22;352;48.626;9.238;2023-06-10T12:20:04;30.50;54.80
736;DHT22;352;48.626;9.238;2023-06-10T12:22:36;30.60;55.40
736;DHT22;352;48.626;9.238;2023-06-10T12:25:04;30.70;54.50
736;DHT22;352;48.626;9.238;2023-06-10T12:27:33;30.80;54.10
736;DHT22;352;48.626;9.238;2023-06-10T12:30:02;30.50;53.80
736;DHT22;352;48.626;9.238;2023-06-10T12:32:37;30.50;55.00
736;DHT22;352;48.626;9.238;2023-06-10T12:35:06;30.30;53.70
736;DHT22;352;48.626;9.238;2023-06-10T12:37:33;30.30;55.00
736;DHT22;352;48.626;9.238;2023-06-10T12:40:00;30.20;54.20
736;DHT22;352;48.626;9.238;2023-06-10T12:42:28;30.00;53.50
736;DHT22;352;48.626;9.238;2023-06-10T12:44:55;29.90;54.30
736;DHT22;352;48.626;9.238;2023-06-10T12:47:30;29.70;54.60
736;DHT22;352;48.626;9.238;2023-06-10T12:49:58;29.60;54.50
736;DHT22;352;48.626;9.238;2023-06-10T12:52:25;29.60;55.20
736;DHT22;352;48.626;9.238;2023-06-10T12:54:52;29.60;55.00
736;DHT22;352;48.626;9.238;2023-06-10T12:57:19;29.60;55.10
736;DHT22;352;48.626;9.238;2023-06-10T12:59:46;29.60;54.80
736;DHT22;352;48.626;9.238;2023-06-10T13:02:18;29.60;55.20
736;DHT22;352;48.626;9.238;2023-06-10T13:04:46;29.50;54.70
736;DHT22;352;48.626;9.238;2023-06-10T13:07:13;29.50;55.60
736;DHT22;352;48.626;9.238;2023-06-10T13:09:39;29.60;57.20
736;DHT22;352;48.626;9.238;2023-06-10T13:12:07;29.50;57.30
736;DHT22;352;48.626;9.238;2023-06-10T13:14:35;29.50;57.90
736;DHT22;352;48.626;9.238;2023-06-10T13:17:03;29.50;57.00
736;DHT22;352;48.626;9.238;2023-06-10T13:19:31;29.50;57.10
736;DHT22;352;48.626;9.238;2023-06-10T13:21:59;29.60;58.10
736;DHT22;352;48.626;9.238;2023-06-10T13:24:26;29.60;57.20
736;DHT22;352;48.626;9.238;2023-06-10T13:26:53;29.50;56.60
736;DHT22;352;48.626;9.238;2023-06-10T13:29:20;29.70;56.50
736;DHT22;352;48.626;9.238;2023-06-10T13:31:47;29.60;57.00
736;DHT22;352;48.626;9.238;2023-06-10T13:34:13;29.60;57.20
736;DHT22;352;48.626;9.238;2023-06-10T13:36:40;29.60;56.10
736;DHT22;352;48.626;9.238;2023-06-10T13:39:08;29.50;56.10
736;DHT22;352;48.626;9.238;2023-06-10T13:41:35;29.30;55.70
736;DHT22;352;48.626;9.238;2023-06-10T13:44:01;29.20;55.70
736;DHT22;352;48.626;9.238;2023-06-10T13:46:28;29.00;55.80
736;DHT22;352;48.626;9.238;2023-06-10T13:48:55;29.00;57.10
736;DHT22;352;48.626;9.238;2023-06-10T13:51:21;29.00;56.70
736;DHT22;352;48.626;9.238;2023-06-10T13:53:48;29.10;56.30
736;DHT22;352;48.626;9.238;2023-06-10T13:56:18;29.10;55.80
736;DHT22;352;48.626;9.238;2023-06-10T13:58:45;29.10;57.00
736;DHT22;352;48.626;9.238;2023-06-10T14:01:11;29.00;56.60
736;DHT22;352;48.626;9.238;2023-06-10T14:03:38;29.10;56.50
736;DHT22;352;48.626;9.238;2023-06-10T14:06:05;29.10;56.30
736;DHT22;352;48.626;9.238;2023-06-10T14:08:32;29.00;56.30
736;DHT22;352;48.626;9.238;2023-06-10T14:10:58;28.90;55.90
736;DHT22;352;48.626;9.238;2023-06-10T14:13:26;28.90;56.80
736;DHT22;352;48.626;9.238;2023-06-10T14:15:53;28.90;56.60
736;DHT22;352;48.626;9.238;2023-06-10T14:18:20;28.70;57.00
736;DHT22;352;48.626;9.238;2023-06-10T14:20:47;28.60;57.80
736;DHT22;352;48.626;9.238;2023-06-10T14:23:13;28.50;57.00
736;DHT22;352;48.626;9.238;2023-06-10T14:25:40;28.40;57.10
736;DHT22;352;48.626;9.238;2023-06-10T14:28:07;28.30;56.80
736;DHT22;352;48.626;9.238;2023-06-10T14:30:35;28.30;57.10
736;DHT22;352;48.626;9.238;2023-06-10T14:33:01;28.30;56.70
736;DHT22;352;48.626;9.238;2023-06-10T14:35:28;28.40;57.10
736;DHT22;352;48.626;9.238;2023-06-10T14:37:55;28.50;57.30
736;DHT22;352;48.626;9.238;2023-06-10T14:40:22;28.60;58.50
736;DHT22;352;48.626;9.238;2023-06-10T14:42:50;28.80;58.00
736;DHT22;352;48.626;9.238;2023-06-10T14:45:16;28.80;58.10
736;DHT22;352;48.626;9.238;2023-06-10T14:47:45;28.90;58.60
736;DHT22;352;48.626;9.238;2023-06-10T14:50:12;28.80;57.60
736;DHT22;352;48.626;9.238;2023-06-10T14:52:39;28.70;58.30
736;DHT22;352;48.626;9.238;2023-06-10T14:55:06;28.60;58.50
736;DHT22;352;48.626;9.238;2023-06-10T14:57:33;28.50;58.60
736;DHT22;352;48.626;9.238;2023-06-10T15:00:00;28.40;58.40
736;DHT22;352;48.626;9.238;2023-06-10T15:02:27;28.30;58.70
736;DHT22;352;48.626;9.238;2023-06-10T15:04:55;28.30;58.80
736;DHT22;352;48.626;9.238;2023-06-10T15:07:21;28.20;59.00
736;DHT22;352;48.626;9.238;2023-06-10T15:09:48;28.30;59.10
736;DHT22;352;48.626;9.238;2023-06-10T15:12:14;28.30;58.70
736;DHT22;352;48.626;9.238;2023-06-10T15:14:41;28.30;58.80
736;DHT22;352;48.626;9.238;2023-06-10T15:17:08;28.30;58.10
736;DHT22;352;48.626;9.238;2023-06-10T15:19:34;28.30;58.40
736;DHT22;352;48.626;9.238;2023-06-10T15:22:03;28.30;58.30
736;DHT22;352;48.626;9.238;2023-06-10T15:24:30;28.40;59.30
736;DHT22;352;48.626;9.238;2023-06-10T15:26:56;28.40;59.60
736;DHT22;352;48.626;9.238;2023-06-10T15:32:43;28.30;59.20
736;DHT22;352;48.626;9.238;2023-06-10T15:35:10;28.20;59.50
736;DHT22;352;48.626;9.238;2023-06-10T15:37:38;28.10;58.90
736;DHT22;352;48.626;9.238;2023-06-10T15:40:06;27.90;59.10
736;DHT22;352;48.626;9.238;2023-06-10T15:42:33;27.80;59.60
736;DHT22;352;48.626;9.238;2023-06-10T15:45:00;27.70;59.60
736;DHT22;352;48.626;9.238;2023-06-10T15:47:27;27.70;59.90
736;DHT22;352;48.626;9.238;2023-06-10T15:49:53;27.60;60.70
736;DHT22;352;48.626;9.238;2023-06-10T15:52:20;27.60;61.50
736;DHT22;352;48.626;9.238;2023-06-10T15:54:48;27.60;61.40
736;DHT22;352;48.626;9.238;2023-06-10T15:57:15;27.60;60.50
736;DHT22;352;48.626;9.238;2023-06-10T15:59:41;27.60;60.80
736;DHT22;352;48.626;9.238;2023-06-10T16:02:08;27.70;61.70
736;DHT22;352;48.626;9.238;2023-06-10T16:04:35;27.80;59.70
736;DHT22;352;48.626;9.238;2023-06-10T16:07:02;27.80;59.70
736;DHT22;352;48.626;9.238;2023-06-10T16:09:29;27.90;59.20
736;DHT22;352;48.626;9.238;2023-06-10T16:11:58;27.90;59.00
736;DHT22;352;48.626;9.238;2023-06-10T16:14:24;27.90;58.20
736;DHT22;352;48.626;9.238;2023-06-10T16:16:51;27.90;58.50
736;DHT22;352;48.626;9.238;2023-06-10T16:19:18;27.80;58.40
736;DHT22;352;48.626;9.238;2023-06-10T16:21:45;27.80;58.30
736;DHT22;352;48.626;9.238;2023-06-10T16:24:12;27.90;59.10
736;DHT22;352;48.626;9.238;2023-06-10T16:26:39;27.70;59.00
736;DHT22;352;48.626;9.238;2023-06-10T16:29:07;27.70;59.00
736;DHT22;352;48.626;9.238;2023-06-10T16:31:35;27.70;59.20
736;DHT22;352;48.626;9.238;2023-06-10T16:34:01;27.70;58.90
736;DHT22;352;48.626;9.238;2023-06-10T16:36:28;27.60;58.80
736;DHT22;352;48.626;9.238;2023-06-10T16:38:55;27.50;58.70
736;DHT22;352;48.626;9.238;2023-06-10T16:41:22;27.40;58.40
736;DHT22;352;48.626;9.238;2023-06-10T16:43:49;27.40;58.60
736;DHT22;352;48.626;9.238;2023-06-10T16:46:17;27.40;58.40